TimeCDT,TemperatureF,Dew PointF,Humidity,Sea Level PressureIn,VisibilityMPH,Wind Direction,Wind SpeedMPH,Gust SpeedMPH,PrecipitationIn,Events,Conditions,WindDirDegrees,DateUTC
12:15 AM,39.4,28.8,66,30.12,10.0,North,4.6,-,N/A,,Clear,350,2013-04-05 05:15:00
12:35 AM,41.2,28.2,60,30.12,10.0,North,4.6,-,N/A,,Scattered Clouds,360,2013-04-05 05:35:00
12:55 AM,40.3,28.6,63,30.13,10.0,North,4.6,-,N/A,,Clear,350,2013-04-05 05:55:00
1:15 AM,38.7,28.2,66,30.14,10.0,NNW,3.5,-,N/A,,Clear,340,2013-04-05 06:15:00
1:35 AM,37.2,27.9,69,30.14,10.0,North,6.9,-,N/A,,Clear,350,2013-04-05 06:35:00
1:55 AM,35.8,28.0,73,30.14,10.0,NNE,5.8,-,N/A,,Clear,30,2013-04-05 06:55:00
2:15 AM,37.0,28.8,72,30.14,10.0,NNE,4.6,-,N/A,,Clear,30,2013-04-05 07:15:00
2:35 AM,38.5,29.1,69,30.13,10.0,East,4.6,-,N/A,,Clear,80,2013-04-05 07:35:00
2:55 AM,36.7,28.0,71,30.14,10.0,ENE,4.6,-,N/A,,Clear,70,2013-04-05 07:55:00
3:15 AM,35.8,28.2,74,30.15,10.0,NE,4.6,-,N/A,,Clear,50,2013-04-05 08:15:00
3:35 AM,37.8,29.3,72,30.14,10.0,ENE,5.8,-,N/A,,Clear,60,2013-04-05 08:35:00
3:55 AM,37.0,29.1,73,30.14,10.0,NE,9.2,-,N/A,,Clear,50,2013-04-05 08:55:00
4:15 AM,35.6,29.3,78,30.14,10.0,ENE,6.9,-,N/A,,Clear,60,2013-04-05 09:15:00
4:35 AM,34.3,28.8,80,30.14,10.0,NE,6.9,-,N/A,,Clear,50,2013-04-05 09:35:00
4:55 AM,35.4,29.5,79,30.14,10.0,NE,8.1,-,N/A,,Clear,50,2013-04-05 09:55:00
5:15 AM,32.9,28.6,84,30.16,10.0,NNE,5.8,-,N/A,,Clear,30,2013-04-05 10:15:00
5:35 AM,33.1,28.9,85,30.16,10.0,NNE,3.5,-,N/A,,Clear,30,2013-04-05 10:35:00
5:55 AM,31.5,27.7,86,30.16,10.0,NE,4.6,-,N/A,,Clear,40,2013-04-05 10:55:00
6:15 AM,32.2,28.6,87,30.16,10.0,ENE,4.6,-,N/A,,Clear,60,2013-04-05 11:15:00
6:35 AM,32.0,28.8,88,30.16,10.0,ENE,6.9,-,N/A,,Clear,60,2013-04-05 11:35:00
6:55 AM,32.4,29.3,88,30.16,10.0,ENE,6.9,-,N/A,,Clear,60,2013-04-05 11:55:00
7:15 AM,32.5,29.3,88,30.15,10.0,East,6.9,-,N/A,,Clear,80,2013-04-05 12:15:00
7:35 AM,32.0,29.1,89,30.14,10.0,East,5.8,-,N/A,,Clear,100,2013-04-05 12:35:00
7:55 AM,33.6,30.4,88,30.15,10.0,South,3.5,-,N/A,,Clear,190,2013-04-05 12:55:00
8:15 AM,34.9,31.5,87,30.15,10.0,SE,4.6,-,N/A,,Clear,140,2013-04-05 13:15:00
8:35 AM,37.4,32.0,81,30.14,10.0,ESE,8.1,-,N/A,,Clear,120,2013-04-05 13:35:00
8:55 AM,39.4,32.0,75,30.14,10.0,ESE,12.7,-,N/A,,Clear,120,2013-04-05 13:55:00
9:15 AM,41.4,32.4,70,30.14,10.0,ESE,11.5,17.3,N/A,,Clear,120,2013-04-05 14:15:00
9:35 AM,42.1,32.0,67,30.13,10.0,SE,15.0,-,N/A,,Unknown,130,2013-04-05 14:35:00
9:55 AM,42.8,32.0,66,30.13,10.0,ESE,15.0,-,N/A,,Clear,120,2013-04-05 14:55:00
10:15 AM,45.3,32.4,61,30.12,10.0,SE,13.8,-,N/A,,Clear,130,2013-04-05 15:15:00
10:35 AM,47.3,32.4,56,30.10,10.0,SE,15.0,-,N/A,,Clear,130,2013-04-05 15:35:00
10:55 AM,49.5,32.7,53,30.09,10.0,SE,17.3,-,N/A,,Clear,130,2013-04-05 15:55:00
11:15 AM,50.5,32.9,51,30.08,10.0,SE,15.0,21.9,N/A,,Clear,140,2013-04-05 16:15:00
11:35 AM,53.4,33.3,46,30.07,10.0,SE,18.4,23.0,N/A,,Clear,140,2013-04-05 16:35:00
11:55 AM,55.6,33.4,43,30.06,10.0,SSE,21.9,28.8,N/A,,Clear,150,2013-04-05 16:55:00
12:15 PM,55.6,33.4,43,30.04,10.0,SE,20.7,27.6,N/A,,Clear,140,2013-04-05 17:15:00
12:35 PM,58.8,34.3,40,30.04,10.0,SSE,19.6,27.6,N/A,,Clear,150,2013-04-05 17:35:00
12:55 PM,60.3,34.0,37,30.01,10.0,SE,17.3,25.3,N/A,,Clear,130,2013-04-05 17:55:00
1:15 PM,62.8,34.9,35,29.99,10.0,SSE,18.4,28.8,N/A,,Clear,160,2013-04-05 18:15:00
1:35 PM,63.3,34.9,35,29.98,10.0,SSE,21.9,27.6,N/A,,Clear,160,2013-04-05 18:35:00
1:55 PM,64.6,35.4,34,29.96,10.0,South,25.3,32.2,N/A,,Clear,180,2013-04-05 18:55:00
2:15 PM,65.5,35.1,32,29.95,10.0,South,21.9,32.2,N/A,,Clear,180,2013-04-05 19:15:00
2:35 PM,65.5,36.0,34,29.93,10.0,SSE,20.7,29.9,N/A,,Clear,160,2013-04-05 19:35:00
2:55 PM,66.2,35.6,32,29.90,10.0,South,23.0,32.2,N/A,,Clear,170,2013-04-05 19:55:00
3:15 PM,66.7,36.3,33,29.88,10.0,SSE,21.9,29.9,N/A,,Clear,160,2013-04-05 20:15:00
3:35 PM,68.4,36.5,31,29.86,10.0,SSE,21.9,29.9,N/A,,Clear,150,2013-04-05 20:35:00
3:55 PM,70.3,34.2,26,29.84,10.0,South,24.2,29.9,N/A,,Clear,170,2013-04-05 20:55:00
4:15 PM,70.2,33.3,26,29.83,10.0,South,21.9,35.7,N/A,,Clear,180,2013-04-05 21:15:00
4:35 PM,70.9,34.3,26,29.81,10.0,South,24.2,33.4,N/A,,Clear,180,2013-04-05 21:35:00
4:55 PM,70.2,34.7,27,29.80,10.0,SSE,26.5,31.1,N/A,,Clear,160,2013-04-05 21:55:00
5:15 PM,71.2,31.8,23,29.80,10.0,South,26.5,31.1,N/A,,Clear,170,2013-04-05 22:15:00
5:35 PM,70.9,30.9,23,29.79,10.0,South,24.2,31.1,N/A,,Clear,170,2013-04-05 22:35:00
5:55 PM,70.3,30.9,23,29.78,10.0,South,18.4,28.8,N/A,,Clear,170,2013-04-05 22:55:00
6:15 PM,70.0,30.7,23,29.78,10.0,South,23.0,29.9,N/A,,Clear,170,2013-04-05 23:15:00
6:35 PM,69.4,31.1,24,29.77,10.0,South,21.9,26.5,N/A,,Clear,170,2013-04-05 23:35:00
6:55 PM,68.9,30.7,24,29.76,10.0,South,23.0,29.9,N/A,,Clear,170,2013-04-05 23:55:00
7:15 PM,68.0,31.1,25,29.76,10.0,South,23.0,-,N/A,,Clear,170,2013-04-06 00:15:00
7:35 PM,66.4,31.5,27,29.75,10.0,South,16.1,21.9,N/A,,Clear,170,2013-04-06 00:35:00
7:55 PM,66.2,31.5,27,29.75,10.0,South,20.7,28.8,N/A,,Clear,170,2013-04-06 00:55:00
8:15 PM,64.4,32.0,30,29.74,10.0,South,15.0,-,N/A,,Clear,170,2013-04-06 01:15:00
8:35 PM,63.7,32.0,31,29.74,10.0,South,21.9,-,N/A,,Clear,170,2013-04-06 01:35:00
8:55 PM,62.6,32.0,32,29.73,10.0,South,18.4,-,N/A,,Clear,170,2013-04-06 01:55:00
9:15 PM,61.3,32.2,33,29.73,10.0,South,17.3,-,N/A,,Clear,170,2013-04-06 02:15:00
9:55 PM,60.1,34.2,38,29.73,10.0,South,16.1,-,N/A,,Clear,170,2013-04-06 02:55:00
10:15 PM,58.3,34.9,41,29.73,10.0,South,11.5,-,N/A,,Clear,170,2013-04-06 03:15:00
10:35 PM,57.7,35.2,43,29.72,10.0,South,10.4,-,N/A,,Clear,170,2013-04-06 03:35:00
10:55 PM,57.4,35.8,44,29.72,10.0,South,12.7,-,N/A,,Clear,170,2013-04-06 03:55:00
11:15 PM,56.8,36.5,47,29.71,10.0,South,12.7,-,N/A,,Clear,170,2013-04-06 04:15:00
11:35 PM,58.1,36.7,45,29.70,10.0,South,12.7,-,N/A,,Clear,170,2013-04-06 04:35:00
11:55 PM,57.2,37.0,47,29.70,10.0,South,13.8,-,N/A,,Clear,170,2013-04-06 04:55:00